Time;durP1;ratioP1;P1;durP2;ratioP2;P2;SDS_P1;SDS_P2;PMS_P1;PMS_P2;Temp;Humidity;BMP_temperature;BMP_pressure;BME280_temperature;BME280_humidity;BME280_pressure;Samples;Min_cycle;Max_cycle;Signal;HPM_P1;HPM_P2
2020/12/19 00:02:22;;;;;;;41.50;19.20;;;1.50;94.10;;;;;;4963343;28;20019;-72
2020/12/19 00:04:48;;;;;;;40.08;19.55;;;1.50;94.10;;;;;;4971903;28;20034;-72
2020/12/19 00:07:14;;;;;;;41.88;19.90;;;1.50;94.20;;;;;;4959830;28;20035;-72
2020/12/19 00:09:39;;;;;;;43.80;19.13;;;1.50;93.90;;;;;;4969293;28;20062;-73
2020/12/19 00:12:06;;;;;;;40.92;20.13;;;1.40;93.90;;;;;;4966483;28;20470;-72
2020/12/19 00:14:32;;;;;;;46.55;20.05;;;1.40;93.90;;;;;;4962078;28;20071;-73
2020/12/19 00:16:57;;;;;;;43.90;20.55;;;1.40;94.10;;;;;;4972001;28;20081;-73
2020/12/19 00:19:23;;;;;;;44.08;20.60;;;1.30;94.10;;;;;;4960471;28;20047;-72
2020/12/19 00:21:49;;;;;;;44.10;19.25;;;1.30;94.10;;;;;;4974929;28;20027;-72
2020/12/19 00:24:15;;;;;;;40.33;19.38;;;1.40;94.10;;;;;;4946721;29;20035;-72
2020/12/19 00:26:41;;;;;;;40.30;18.50;;;1.30;94.20;;;;;;4970621;28;20497;-72
2020/12/19 00:29:10;;;;;;;40.03;18.10;;;1.40;94.20;;;;;;4959315;28;20039;-72
2020/12/19 00:31:36;;;;;;;40.22;18.88;;;1.30;93.90;;;;;;4969250;28;20028;-72
2020/12/19 00:34:03;;;;;;;40.00;18.05;;;1.40;94.20;;;;;;4965384;28;20031;-72
2020/12/19 00:36:28;;;;;;;37.30;17.75;;;1.30;94.00;;;;;;4961800;28;20062;-72
2020/12/19 00:38:55;;;;;;;37.65;17.58;;;1.40;94.10;;;;;;4971736;28;20128;-72
2020/12/19 00:41:23;;;;;;;37.83;18.05;;;1.40;94.10;;;;;;4959830;28;20046;-72
2020/12/19 00:43:49;;;;;;;34.20;17.13;;;1.30;94.10;;;;;;4949886;29;20030;-72
2020/12/19 00:46:19;;;;;;;35.35;17.42;;;1.40;94.20;;;;;;4966950;28;20041;-73
2020/12/19 00:48:46;;;;;;;35.30;17.23;;;1.30;94.10;;;;;;4959648;28;20023;-73
2020/12/19 00:51:18;;;;;;;34.75;17.25;;;1.40;94.10;;;;;;4967073;28;20023;-72
2020/12/19 00:53:45;;;;;;;37.50;17.35;;;1.40;94.10;;;;;;4967647;28;20521;-72
2020/12/19 00:56:21;;;;;;;36.05;18.27;;;1.30;94.00;;;;;;4966321;28;20022;-72
2020/12/19 00:58:47;;;;;;;32.03;16.38;;;1.30;94.10;;;;;;4959120;28;20043;-72
2020/12/19 01:01:14;;;;;;;45.47;19.60;;;1.30;94.10;;;;;;4953139;28;20025;-72
2020/12/19 01:03:40;;;;;;;34.65;16.30;;;1.20;94.10;;;;;;4961866;28;20066;-73
2020/12/19 01:06:06;;;;;;;33.83;17.02;;;1.20;94.30;;;;;;4964557;28;20027;-73
2020/12/19 01:08:32;;;;;;;40.63;18.42;;;1.30;94.20;;;;;;4968805;28;20027;-73
2020/12/19 01:10:57;;;;;;;37.80;18.17;;;1.20;94.20;;;;;;4958404;28;20368;-73
2020/12/19 01:13:23;;;;;;;38.08;18.45;;;1.20;94.40;;;;;;4970039;28;20041;-73
2020/12/19 01:15:49;;;;;;;37.65;17.35;;;1.20;94.30;;;;;;4945755;28;20018;-73
2020/12/19 01:18:17;;;;;;;34.58;16.90;;;1.30;94.50;;;;;;4962944;28;20102;-72
2020/12/19 01:20:42;;;;;;;31.30;16.27;;;1.30;94.40;;;;;;4969881;28;20065;-72
2020/12/19 01:23:08;;;;;;;37.95;17.05;;;1.30;94.30;;;;;;4971630;28;20108;-73
2020/12/19 01:25:34;;;;;;;32.40;15.35;;;1.30;94.20;;;;;;4943497;28;20110;-71
2020/12/19 01:27:59;;;;;;;34.28;17.05;;;1.30;94.20;;;;;;4964948;28;20058;-71
2020/12/19 01:30:25;;;;;;;29.13;16.10;;;1.30;94.10;;;;;;4967442;28;20031;-71
2020/12/19 01:32:50;;;;;;;34.45;17.23;;;1.30;94.20;;;;;;4957910;28;20042;-71
2020/12/19 01:35:17;;;;;;;34.35;16.40;;;1.40;94.30;;;;;;4953286;29;20113;-72
2020/12/19 01:37:43;;;;;;;32.65;15.77;;;1.40;94.10;;;;;;4961641;28;20034;-72
2020/12/19 01:40:09;;;;;;;31.70;16.20;;;1.30;94.10;;;;;;4963595;28;20106;-72
2020/12/19 01:42:34;;;;;;;31.52;16.27;;;1.40;94.30;;;;;;4968381;28;20117;-72
2020/12/19 01:45:00;;;;;;;31.52;16.02;;;1.30;94.00;;;;;;4957711;28;20023;-71
2020/12/19 01:47:26;;;;;;;28.73;15.68;;;1.30;94.10;;;;;;4951724;29;20494;-71
2020/12/19 01:49:52;;;;;;;28.73;14.35;;;1.40;94.10;;;;;;4943465;28;20106;-72
2020/12/19 01:52:21;;;;;;;26.88;13.77;;;1.40;94.10;;;;;;4944874;29;20031;-71
2020/12/19 01:54:48;;;;;;;26.70;14.40;;;1.30;94.10;;;;;;4969745;28;20134;-72
2020/12/19 01:57:17;;;;;;;26.33;14.57;;;1.40;94.20;;;;;;4957261;28;20034;-71
2020/12/19 01:59:42;;;;;;;25.42;13.30;;;1.50;94.10;;;;;;4966569;28;20023;-71
2020/12/19 02:02:10;;;;;;;24.08;12.68;;;1.50;94.00;;;;;;4947497;28;20031;-71
2020/12/19 02:04:36;;;;;;;23.98;12.48;;;1.40;93.90;;;;;;4959285;28;20361;-72
2020/12/19 02:07:04;;;;;;;26.70;13.27;;;1.50;94.10;;;;;;4970358;28;20031;-72
2020/12/19 02:09:38;;;;;;;23.63;12.65;;;1.50;94.00;;;;;;4959549;28;20019;-72
2020/12/19 02:12:05;;;;;;;22.60;12.00;;;1.50;93.70;;;;;;4963439;28;20027;-72
2020/12/19 02:14:31;;;;;;;24.27;13.32;;;1.40;93.80;;;;;;4967340;28;20029;-71
2020/12/19 02:17:05;;;;;;;23.15;12.52;;;1.40;93.80;;;;;;4957137;28;20130;-71
2020/12/19 02:19:32;;;;;;;22.63;12.88;;;1.50;94.00;;;;;;4967978;28;20078;-71
2020/12/19 02:21:59;;;;;;;18.20;11.15;;;1.50;93.80;;;;;;4971275;28;20046;-71
2020/12/19 02:24:25;;;;;;;20.20;11.48;;;1.50;93.80;;;;;;4959267;28;20028;-71
2020/12/19 02:26:53;;;;;;;19.83;11.30;;;1.50;93.70;;;;;;4969384;28;20525;-71
2020/12/19 02:29:19;;;;;;;19.92;11.50;;;1.50;93.60;;;;;;4957585;28;20027;-72
2020/12/19 02:31:46;;;;;;;21.25;11.18;;;1.40;93.60;;;;;;4948309;29;20026;-72
2020/12/19 02:34:12;;;;;;;21.67;12.15;;;1.50;93.80;;;;;;4964539;28;20164;-72
2020/12/19 02:36:39;;;;;;;18.90;11.65;;;1.50;93.90;;;;;;4958326;28;20031;-71
2020/12/19 02:39:05;;;;;;;21.95;12.45;;;1.50;93.70;;;;;;4952187;28;20094;-72
2020/12/19 02:41:35;;;;;;;20.20;11.60;;;1.60;93.70;;;;;;4958794;28;20030;-72
2020/12/19 02:44:00;;;;;;;20.20;11.05;;;1.50;93.60;;;;;;4962403;28;20031;-72
2020/12/19 02:46:26;;;;;;;16.70;10.52;;;1.60;93.50;;;;;;4966051;28;20046;-72
2020/12/19 02:48:52;;;;;;;21.08;11.77;;;1.60;93.50;;;;;;4956143;28;20114;-72
2020/12/19 02:51:17;;;;;;;16.88;11.00;;;1.60;93.10;;;;;;4965276;28;20355;-72
2020/12/19 02:53:43;;;;;;;18.42;10.75;;;1.60;93.20;;;;;;4965596;28;20325;-72
2020/12/19 02:56:09;;;;;;;19.40;11.52;;;1.60;93.20;;;;;;4963722;28;20027;-72
2020/12/19 02:58:34;;;;;;;19.83;11.02;;;1.60;93.00;;;;;;4958498;28;20446;-72
2020/12/19 03:01:00;;;;;;;19.90;11.35;;;1.60;93.10;;;;;;4969372;28;20041;-72
2020/12/19 03:03:26;;;;;;;24.65;11.82;;;1.50;93.20;;;;;;4958453;28;20113;-73
2020/12/19 03:05:52;;;;;;;19.38;11.20;;;1.50;93.40;;;;;;4964820;28;20578;-73
2020/12/19 03:08:18;;;;;;;19.10;11.35;;;1.60;93.30;;;;;;4947634;28;20050;-73
2020/12/19 03:10:43;;;;;;;18.65;11.38;;;1.60;93.30;;;;;;4957214;28;20034;-73
2020/12/19 03:13:09;;;;;;;22.00;11.40;;;1.60;93.10;;;;;;4969151;28;20429;-73
2020/12/19 03:15:35;;;;;;;22.05;11.40;;;1.60;93.10;;;;;;4958924;28;20034;-73
2020/12/19 03:18:00;;;;;;;20.95;12.32;;;1.50;93.30;;;;;;4945641;29;20502;-73
2020/12/19 03:20:26;;;;;;;18.48;10.85;;;1.50;93.30;;;;;;4965708;28;20466;-72
2020/12/19 03:22:52;;;;;;;22.67;12.05;;;1.50;93.30;;;;;;4973259;28;20065;-71
2020/12/19 03:25:17;;;;;;;19.15;11.48;;;1.60;93.40;;;;;;4945692;28;20038;-71
2020/12/19 03:27:43;;;;;;;17.73;10.70;;;1.60;93.40;;;;;;4971576;28;20031;-71
2020/12/19 03:30:09;;;;;;;19.17;11.65;;;1.60;93.10;;;;;;4969815;28;20090;-72
2020/12/19 03:32:34;;;;;;;21.00;10.95;;;1.60;93.10;;;;;;4964512;28;20402;-71
2020/12/19 03:35:00;;;;;;;16.70;10.45;;;1.60;93.20;;;;;;4974985;28;20110;-72
2020/12/19 03:37:26;;;;;;;18.73;11.07;;;1.50;93.20;;;;;;4964044;28;20031;-71
2020/12/19 03:39:51;;;;;;;19.17;11.60;;;1.60;93.30;;;;;;4970277;28;20419;-71
2020/12/19 03:42:17;;;;;;;18.73;11.20;;;1.60;93.20;;;;;;4970619;28;20030;-71
2020/12/19 03:44:42;;;;;;;17.00;10.52;;;1.60;93.10;;;;;;4963489;28;20038;-71
2020/12/19 03:47:08;;;;;;;19.38;11.25;;;1.50;93.00;;;;;;4975270;28;20035;-71
2020/12/19 03:49:34;;;;;;;17.70;10.35;;;1.50;93.20;;;;;;4959979;28;20493;-71
2020/12/19 03:51:59;;;;;;;17.48;10.82;;;1.60;93.30;;;;;;4976715;28;20085;-71
2020/12/19 03:54:25;;;;;;;17.52;10.52;;;1.60;93.20;;;;;;4965605;28;20034;-71
2020/12/19 03:56:51;;;;;;;18.58;10.50;;;1.50;92.90;;;;;;4972255;28;20038;-71
2020/12/19 03:59:16;;;;;;;18.98;10.38;;;1.50;93.20;;;;;;4974778;28;20438;-71
2020/12/19 04:01:42;;;;;;;18.25;9.73;;;1.70;93.20;;;;;;4966022;28;20069;-71
2020/12/19 04:04:07;;;;;;;18.77;9.75;;;1.60;92.80;;;;;;4968098;28;20032;-71
2020/12/19 04:06:33;;;;;;;18.63;10.20;;;1.60;92.90;;;;;;4972693;28;20038;-74
2020/12/19 04:08:59;;;;;;;18.92;9.77;;;1.60;93.00;;;;;;4962109;28;20031;-71
2020/12/19 04:11:24;;;;;;;17.48;10.27;;;1.60;92.90;;;;;;4973695;28;20031;-71
2020/12/19 04:13:50;;;;;;;18.10;10.50;;;1.50;93.00;;;;;;4966988;28;20029;-71
2020/12/19 04:16:16;;;;;;;18.15;10.52;;;1.50;93.00;;;;;;4966890;28;20054;-71
2020/12/19 04:18:41;;;;;;;16.95;9.18;;;1.60;93.30;;;;;;4956380;28;20402;-71
2020/12/19 04:21:08;;;;;;;18.17;10.23;;;1.60;93.20;;;;;;4970436;28;20501;-71
2020/12/19 04:23:34;;;;;;;19.58;11.35;;;1.60;93.10;;;;;;4967800;28;20203;-71
2020/12/19 04:26:01;;;;;;;17.75;9.10;;;1.60;93.00;;;;;;4948926;29;20569;-71
2020/12/19 04:28:27;;;;;;;16.27;10.40;;;1.60;92.90;;;;;;4945980;28;20497;-70
2020/12/19 04:30:53;;;;;;;16.88;9.65;;;1.60;93.00;;;;;;4955258;29;20110;-70
2020/12/19 04:33:19;;;;;;;15.43;9.82;;;1.60;92.90;;;;;;4943406;29;20442;-71
2020/12/19 04:35:45;;;;;;;18.75;10.02;;;1.60;92.90;;;;;;4948859;28;20106;-71
2020/12/19 04:38:11;;;;;;;17.48;9.30;;;1.60;92.90;;;;;;4947065;29;20043;-72
2020/12/19 04:40:37;;;;;;;14.65;8.48;;;1.60;92.80;;;;;;4941064;29;20031;-72
2020/12/19 04:43:16;;;;;;;16.08;9.50;;;1.60;92.80;;;;;;4952126;29;20042;-72
2020/12/19 04:45:43;;;;;;;15.00;9.45;;;1.70;92.70;;;;;;4943400;29;20026;-71
2020/12/19 04:48:09;;;;;;;15.05;9.02;;;1.70;92.60;;;;;;4945171;28;20587;-72
2020/12/19 04:50:39;;;;;;;16.88;9.43;;;1.70;92.40;;;;;;4933443;29;20035;-71
2020/12/19 04:53:17;;;;;;;15.52;8.95;;;1.80;92.40;;;;;;4953583;28;20402;-71
2020/12/19 04:55:44;;;;;;;13.57;8.23;;;1.80;92.40;;;;;;4942105;29;20127;-72
2020/12/19 04:58:15;;;;;;;16.05;9.27;;;1.70;92.20;;;;;;4944964;28;20049;-72
2020/12/19 05:00:42;;;;;;;16.73;9.50;;;1.70;92.40;;;;;;4950863;29;20019;-72
2020/12/19 05:03:08;;;;;;;15.88;9.05;;;1.70;92.30;;;;;;4939277;28;20520;-72
2020/12/19 05:05:44;;;;;;;17.73;9.35;;;1.70;92.30;;;;;;4949654;28;20028;-73
2020/12/19 05:08:11;;;;;;;13.38;9.00;;;1.80;92.40;;;;;;4946713;29;20051;-72
2020/12/19 05:10:38;;;;;;;14.63;8.63;;;1.80;92.20;;;;;;4941113;28;20028;-72
2020/12/19 05:13:04;;;;;;;18.58;9.80;;;1.70;92.20;;;;;;4951741;29;20028;-73
2020/12/19 05:15:30;;;;;;;16.90;9.02;;;1.80;92.30;;;;;;4941072;29;20497;-72
2020/12/19 05:17:59;;;;;;;16.92;9.60;;;1.80;92.20;;;;;;4945154;29;20054;-72
2020/12/19 05:20:30;;;;;;;16.75;9.90;;;1.80;92.00;;;;;;4948460;29;20094;-72
2020/12/19 05:22:57;;;;;;;19.98;11.00;;;1.90;92.10;;;;;;4951004;29;20138;-73
2020/12/19 05:25:24;;;;;;;20.30;11.43;;;1.80;92.10;;;;;;4954983;28;20020;-73
2020/12/19 05:27:51;;;;;;;15.68;9.43;;;1.80;92.20;;;;;;4946959;28;20023;-72
2020/12/19 05:30:19;;;;;;;16.23;9.73;;;1.70;92.20;;;;;;4946897;29;20023;-71
2020/12/19 05:32:50;;;;;;;17.38;9.23;;;1.70;92.40;;;;;;4939676;28;20038;-71
2020/12/19 05:35:18;;;;;;;19.58;10.25;;;1.70;92.50;;;;;;4954916;28;20019;-71
2020/12/19 05:37:55;;;;;;;17.80;9.48;;;1.70;92.30;;;;;;4947646;28;20036;-71
2020/12/19 05:40:24;;;;;;;17.05;9.73;;;1.70;92.40;;;;;;4947483;28;20023;-71
2020/12/19 05:42:49;;;;;;;19.33;10.27;;;1.70;92.50;;;;;;4938804;28;20036;-71
2020/12/19 05:45:21;;;;;;;21.40;11.27;;;1.70;92.50;;;;;;4938705;28;20027;-70
2020/12/19 05:47:47;;;;;;;20.77;10.63;;;1.70;92.50;;;;;;4946818;28;20031;-71
2020/12/19 05:50:14;;;;;;;17.15;9.80;;;1.70;92.50;;;;;;4939651;29;20480;-70
2020/12/19 05:52:40;;;;;;;17.98;9.95;;;1.70;92.40;;;;;;4954382;28;20116;-72
2020/12/19 05:55:14;;;;;;;18.50;9.75;;;1.70;92.60;;;;;;4937162;29;20152;-73
2020/12/19 05:57:40;;;;;;;22.95;11.50;;;1.70;92.80;;;;;;4953496;28;20035;-71
2020/12/19 06:00:08;;;;;;;20.08;11.20;;;1.70;92.70;;;;;;4944656;28;20034;-72
2020/12/19 06:02:36;;;;;;;19.38;10.52;;;1.80;92.60;;;;;;4948702;29;20486;-72
2020/12/19 06:05:05;;;;;;;19.52;10.57;;;1.80;92.50;;;;;;4938489;28;20502;-72
2020/12/19 06:07:43;;;;;;;21.15;11.65;;;1.70;92.50;;;;;;4948893;28;20126;-72
2020/12/19 06:10:10;;;;;;;21.17;10.50;;;1.70;92.60;;;;;;4945488;29;20072;-73
2020/12/19 06:13:26;;;;;;;16.05;9.73;;;1.80;92.60;;;;;;4940146;28;20038;-72
2020/12/19 06:16:09;;;;;;;21.80;10.38;;;1.80;92.60;;;;;;4905515;29;20575;-73
2020/12/19 06:18:55;;;;;;;18.75;10.35;;;1.80;92.50;;;;;;4941924;29;20098;-73
2020/12/19 06:21:21;;;;;;;22.30;11.30;;;1.70;92.60;;;;;;4947347;29;20019;-73
2020/12/19 06:23:47;;;;;;;21.88;11.70;;;1.80;92.60;;;;;;4944897;29;20499;-73
2020/12/19 06:26:13;;;;;;;22.83;11.43;;;1.80;92.60;;;;;;4945603;29;20110;-73
2020/12/19 06:28:39;;;;;;;24.52;12.30;;;1.70;92.80;;;;;;4939131;28;20028;-73
2020/12/19 06:31:25;;;;;;;22.35;11.63;;;1.80;92.80;;;;;;4950331;29;20557;-73
2020/12/19 06:33:53;;;;;;;20.33;11.05;;;1.80;92.60;;;;;;4942301;28;20031;-72
2020/12/19 06:36:27;;;;;;;23.50;11.70;;;1.90;92.70;;;;;;4941855;28;20119;-71
2020/12/19 06:39:13;;;;;;;24.15;12.07;;;1.90;92.60;;;;;;4949957;28;20051;-72
2020/12/19 06:41:58;;;;;;;21.73;11.50;;;1.90;92.50;;;;;;4940663;28;20031;-74
2020/12/19 06:44:27;;;;;;;21.55;11.90;;;2.00;92.60;;;;;;4939868;29;20063;-71
2020/12/19 06:46:54;;;;;;;22.75;12.98;;;1.90;92.40;;;;;;4948698;29;20043;-72
2020/12/19 06:49:22;;;;;;;21.80;11.30;;;2.00;92.40;;;;;;4935088;29;20024;-72
2020/12/19 06:52:02;;;;;;;21.52;12.07;;;1.90;92.50;;;;;;4950093;29;20031;-71
2020/12/19 06:54:28;;;;;;;19.90;11.75;;;1.90;92.50;;;;;;4940513;28;20035;-72
2020/12/19 06:56:53;;;;;;;19.83;11.88;;;1.90;92.50;;;;;;4948477;28;20340;-71
2020/12/19 06:59:26;;;;;;;20.98;12.27;;;1.90;92.50;;;;;;4935966;29;20086;-71
2020/12/19 07:01:52;;;;;;;21.90;11.85;;;1.80;92.60;;;;;;4945046;28;20123;-73
2020/12/19 07:04:47;;;;;;;20.83;11.85;;;1.90;92.50;;;;;;4945849;29;20313;-72
2020/12/19 07:07:24;;;;;;;21.60;11.88;;;1.90;92.50;;;;;;4936751;29;20094;-71
2020/12/19 07:10:08;;;;;;;22.90;12.43;;;1.90;92.50;;;;;;4945446;28;20510;-72
2020/12/19 07:12:38;;;;;;;22.20;12.23;;;1.90;92.50;;;;;;4946351;29;20023;-72
2020/12/19 07:15:28;;;;;;;22.52;12.77;;;1.90;92.40;;;;;;4937184;28;20035;-71
2020/12/19 07:17:54;;;;;;;20.10;11.80;;;1.90;92.40;;;;;;4944984;28;20036;-71
2020/12/19 07:20:21;;;;;;;21.17;12.63;;;2.00;92.30;;;;;;4945654;29;20019;-71
2020/12/19 07:22:48;;;;;;;21.25;11.52;;;2.00;92.30;;;;;;4962598;28;20078;-71
2020/12/19 07:25:13;;;;;;;21.23;13.13;;;2.00;92.30;;;;;;4938941;28;20602;-71
2020/12/19 07:27:39;;;;;;;22.15;12.32;;;2.00;92.10;;;;;;4965795;28;20023;-71
2020/12/19 07:30:05;;;;;;;20.20;12.48;;;2.00;92.10;;;;;;4962871;28;20035;-71
2020/12/19 07:32:30;;;;;;;24.42;13.50;;;2.00;92.10;;;;;;4958623;28;20038;-72
2020/12/19 07:34:58;;;;;;;23.60;13.02;;;2.10;92.00;;;;;;4951424;28;20066;-72
2020/12/19 07:37:25;;;;;;;21.48;12.55;;;2.10;92.00;;;;;;4957202;28;20042;-72
2020/12/19 07:40:02;;;;;;;21.92;13.20;;;2.10;92.10;;;;;;4964024;28;20016;-71
2020/12/19 07:42:27;;;;;;;24.45;14.02;;;2.30;92.00;;;;;;4966014;28;20050;-71
2020/12/19 07:44:53;;;;;;;19.88;11.93;;;2.30;91.60;;;;;;4956063;28;20443;-72
2020/12/19 07:47:19;;;;;;;19.45;12.23;;;2.40;91.40;;;;;;4968358;28;20487;-71
2020/12/19 07:49:50;;;;;;;19.98;12.10;;;2.60;90.90;;;;;;4963193;28;20026;-70
2020/12/19 07:52:26;;;;;;;21.17;12.70;;;2.50;90.80;;;;;;4968593;28;20490;-70
2020/12/19 07:54:54;;;;;;;22.00;12.57;;;2.70;90.60;;;;;;4960232;28;20034;-71
2020/12/19 07:57:20;;;;;;;19.23;11.18;;;2.90;90.20;;;;;;4967403;28;20035;-71
2020/12/19 07:59:46;;;;;;;22.27;12.65;;;3.00;89.40;;;;;;4943820;28;20023;-71
2020/12/19 08:02:15;;;;;;;18.05;11.60;;;3.00;89.50;;;;;;4972693;28;20027;-70
2020/12/19 08:04:48;;;;;;;21.15;12.40;;;3.10;89.00;;;;;;4957058;28;20042;-71
2020/12/19 08:07:13;;;;;;;26.38;14.88;;;3.10;89.10;;;;;;4968175;28;20023;-73
2020/12/19 08:09:39;;;;;;;19.83;12.23;;;3.10;89.40;;;;;;4960352;28;20029;-72
2020/12/19 08:12:06;;;;;;;20.90;12.25;;;3.30;88.80;;;;;;4965319;28;20028;-72
2020/12/19 08:14:34;;;;;;;19.38;12.38;;;3.40;88.10;;;;;;4969454;28;20589;-73
2020/12/19 08:17:00;;;;;;;19.48;11.48;;;3.40;88.10;;;;;;4958222;28;20118;-69
2020/12/19 08:19:36;;;;;;;21.00;12.73;;;3.10;88.40;;;;;;4974226;28;20118;-74
2020/12/19 08:22:04;;;;;;;20.48;12.07;;;3.20;88.90;;;;;;4975199;28;20031;-74
2020/12/19 08:24:30;;;;;;;20.23;12.20;;;3.20;88.40;;;;;;4973455;28;20034;-73
2020/12/19 08:27:44;;;;;;;23.52;12.32;;;3.30;88.20;;;;;;4952651;28;20573;-71
2020/12/19 08:30:25;;;;;;;20.38;12.43;;;3.30;88.20;;;;;;4938671;28;20031;-73
2020/12/19 08:32:58;;;;;;;21.27;12.40;;;3.40;87.80;;;;;;4960670;28;20031;-72
2020/12/19 08:35:35;;;;;;;20.58;11.98;;;3.50;87.20;;;;;;4956135;28;20086;-73
2020/12/19 08:38:13;;;;;;;20.35;12.52;;;3.50;87.20;;;;;;4967682;28;20039;-72
2020/12/19 08:40:40;;;;;;;19.73;12.10;;;3.50;87.10;;;;;;4968230;28;20022;-73
2020/12/19 08:43:08;;;;;;;21.02;12.45;;;3.40;87.10;;;;;;4973469;28;20069;-69
2020/12/19 08:45:47;;;;;;;21.35;12.90;;;3.50;87.20;;;;;;4970613;28;20497;-78
2020/12/19 08:48:26;;;;;;;19.98;11.93;;;3.50;87.00;;;;;;4949867;28;20082;-78
2020/12/19 08:50:53;;;;;;;23.33;14.02;;;3.60;86.80;;;;;;4950681;28;20099;-76
2020/12/19 08:53:26;;;;;;;19.83;12.63;;;3.50;87.10;;;;;;4971438;28;20118;-77
2020/12/19 08:55:54;;;;;;;22.33;13.02;;;3.50;87.30;;;;;;4961420;28;20031;-74
2020/12/19 08:58:24;;;;;;;22.48;13.27;;;3.50;87.40;;;;;;4964684;28;20112;-74
2020/12/19 09:00:50;;;;;;;20.60;13.05;;;3.60;87.20;;;;;;4969530;28;20023;-73
2020/12/19 09:03:33;;;;;;;20.13;12.73;;;3.80;86.80;;;;;;4960008;28;20081;-74
2020/12/19 09:06:04;;;;;;;21.10;12.68;;;3.90;86.40;;;;;;4968696;28;20059;-74
2020/12/19 09:08:32;;;;;;;22.65;13.27;;;4.00;85.90;;;;;;4967100;28;20027;-74
2020/12/19 09:10:58;;;;;;;21.35;13.02;;;4.00;86.00;;;;;;4959133;28;20501;-74
2020/12/19 09:13:23;;;;;;;21.95;13.55;;;4.00;85.60;;;;;;4971051;28;20035;-74
2020/12/19 09:15:51;;;;;;;22.42;12.77;;;4.20;85.00;;;;;;4960904;28;20522;-73
2020/12/19 09:18:22;;;;;;;22.77;13.63;;;4.20;84.70;;;;;;4948256;28;20086;-73
2020/12/19 09:20:51;;;;;;;;;;;4.10;84.90;;;;;;4973823;28;20035;-73
2020/12/19 09:23:17;;;;;;;22.77;13.93;;;4.20;85.10;;;;;;4958025;28;19918;-73
2020/12/19 09:25:43;;;;;;;22.80;13.60;;;4.20;84.70;;;;;;4968879;28;20122;-74
2020/12/19 09:28:09;;;;;;;23.20;14.73;;;4.20;84.70;;;;;;4963758;28;20094;-73
2020/12/19 09:30:34;;;;;;;22.98;14.02;;;4.20;84.70;;;;;;4944806;29;20478;-74
2020/12/19 09:33:00;;;;;;;20.38;13.35;;;4.20;85.00;;;;;;4965559;28;20035;-73
2020/12/19 09:35:27;;;;;;;23.38;13.93;;;4.10;84.90;;;;;;4970488;28;20028;-73
2020/12/19 09:37:54;;;;;;;22.73;14.02;;;4.20;85.00;;;;;;4960753;28;20042;-73
2020/12/19 09:40:20;;;;;;;20.10;13.25;;;4.10;85.00;;;;;;4963522;28;20122;-74
2020/12/19 09:42:45;;;;;;;20.92;13.73;;;4.20;85.00;;;;;;4967841;28;20113;-73
2020/12/19 09:45:11;;;;;;;24.70;13.00;;;4.20;85.10;;;;;;4940278;28;20062;-75
2020/12/19 09:47:41;;;;;;;25.83;14.15;;;4.20;85.10;;;;;;4969517;28;20055;-74
2020/12/19 09:50:10;;;;;;;19.85;12.80;;;4.20;84.90;;;;;;4962489;28;20057;-73
2020/12/19 09:52:37;;;;;;;19.92;13.27;;;4.20;84.80;;;;;;4970827;28;20035;-74
2020/12/19 09:55:04;;;;;;;20.02;12.88;;;4.30;84.70;;;;;;4969969;28;20122;-73
2020/12/19 09:57:30;;;;;;;23.15;14.93;;;4.30;84.70;;;;;;4957342;28;20488;-73
2020/12/19 09:59:56;;;;;;;20.17;13.07;;;4.40;84.80;;;;;;4966470;28;20110;-73
2020/12/19 10:02:22;;;;;;;24.38;14.32;;;4.30;84.50;;;;;;4964287;28;20030;-73
2020/12/19 10:04:47;;;;;;;21.98;13.82;;;4.30;84.50;;;;;;4959554;28;20028;-73
2020/12/19 10:07:13;;;;;;;21.35;13.68;;;4.30;84.80;;;;;;4969481;28;20022;-73
2020/12/19 10:09:39;;;;;;;23.17;14.77;;;4.20;84.90;;;;;;4941426;28;20038;-73
2020/12/19 10:12:04;;;;;;;21.65;14.30;;;4.30;85.00;;;;;;4965338;28;20390;-73
2020/12/19 10:14:30;;;;;;;23.90;15.63;;;4.30;85.10;;;;;;4948139;28;20026;-73
2020/12/19 10:16:56;;;;;;;25.35;15.43;;;4.30;85.00;;;;;;4958112;28;20074;-73
2020/12/19 10:19:21;;;;;;;24.67;14.63;;;4.30;85.30;;;;;;4971865;28;20474;-73
2020/12/19 10:21:47;;;;;;;21.88;15.10;;;4.30;85.30;;;;;;4972598;28;20030;-74
2020/12/19 10:24:13;;;;;;;25.27;16.60;;;4.40;85.30;;;;;;4963822;28;20042;-74
2020/12/19 10:26:39;;;;;;;25.20;15.77;;;4.40;85.30;;;;;;4954124;28;20027;-74
2020/12/19 10:29:04;;;;;;;24.30;15.35;;;4.40;85.30;;;;;;4969453;28;20037;-74
2020/12/19 10:31:30;;;;;;;23.67;14.70;;;4.40;85.10;;;;;;4957010;28;20437;-73
2020/12/19 10:33:56;;;;;;;26.70;16.20;;;4.50;84.70;;;;;;4965969;28;20023;-73
2020/12/19 10:36:22;;;;;;;25.38;16.10;;;4.50;84.60;;;;;;4963466;28;20115;-73
2020/12/19 10:38:48;;;;;;;25.13;17.20;;;4.50;85.30;;;;;;4958672;28;20039;-73
2020/12/19 10:41:14;;;;;;;22.42;15.35;;;4.50;84.60;;;;;;4969258;28;20074;-72
2020/12/19 10:43:41;;;;;;;25.88;17.13;;;4.40;84.90;;;;;;4958174;28;20026;-72
2020/12/19 10:46:07;;;;;;;22.58;15.13;;;4.40;84.80;;;;;;4964275;28;20115;-73
2020/12/19 10:48:33;;;;;;;21.08;15.45;;;4.50;84.90;;;;;;4965084;28;20042;-73
2020/12/19 10:50:59;;;;;;;20.73;14.77;;;4.50;84.60;;;;;;4965122;28;20038;-72
2020/12/19 10:53:26;;;;;;;23.75;15.68;;;4.50;84.50;;;;;;4969655;28;20039;-73
2020/12/19 10:55:52;;;;;;;22.35;14.75;;;4.50;84.40;;;;;;4959496;28;20077;-73
2020/12/19 10:58:17;;;;;;;20.05;13.63;;;4.50;84.40;;;;;;4962737;28;20608;-73
2020/12/19 11:00:43;;;;;;;21.23;14.45;;;4.50;84.30;;;;;;4965993;28;20023;-73
2020/12/19 11:03:09;;;;;;;21.48;15.05;;;4.50;84.10;;;;;;4954971;28;20117;-73
2020/12/19 11:05:41;;;;;;;22.95;15.18;;;4.50;84.50;;;;;;4968141;28;20057;-73
2020/12/19 11:08:08;;;;;;;20.33;14.90;;;4.50;84.50;;;;;;4961376;28;20054;-73
2020/12/19 11:10:34;;;;;;;22.75;16.05;;;4.50;83.90;;;;;;4960486;28;20038;-74
2020/12/19 11:13:03;;;;;;;22.45;15.95;;;4.50;84.10;;;;;;4968191;28;20122;-74
2020/12/19 11:15:32;;;;;;;22.88;14.63;;;4.50;84.40;;;;;;4956207;28;20023;-74
2020/12/19 11:17:58;;;;;;;21.92;14.98;;;4.50;84.40;;;;;;4963859;28;20041;-73
2020/12/19 11:20:24;;;;;;;21.77;15.63;;;4.60;84.20;;;;;;4963215;28;20479;-73
2020/12/19 11:22:50;;;;;;;20.70;15.63;;;4.60;84.10;;;;;;4971706;28;20142;-72
2020/12/19 11:25:16;;;;;;;22.98;15.10;;;4.60;83.80;;;;;;4954987;28;20023;-73
2020/12/19 11:27:42;;;;;;;24.40;15.88;;;4.60;83.90;;;;;;4957854;28;20023;-73
2020/12/19 11:30:08;;;;;;;20.52;14.63;;;4.60;83.80;;;;;;4963645;28;20479;-73
2020/12/19 11:32:34;;;;;;;23.10;14.75;;;4.70;83.80;;;;;;4964218;28;20026;-72
2020/12/19 11:35:00;;;;;;;19.67;14.63;;;4.60;83.80;;;;;;4979327;23;20055;-74
2020/12/19 11:37:26;;;;;;;20.58;15.20;;;4.70;83.50;;;;;;4955986;28;20371;-73
2020/12/19 11:39:53;;;;;;;17.70;13.10;;;4.60;83.30;;;;;;4965815;28;20395;-73
2020/12/19 11:42:19;;;;;;;18.88;13.48;;;4.60;83.60;;;;;;4962328;28;20552;-73
2020/12/19 11:44:45;;;;;;;23.52;14.25;;;4.60;83.10;;;;;;4959957;28;20498;-74
2020/12/19 11:47:11;;;;;;;21.45;14.63;;;4.70;83.20;;;;;;4972097;28;20035;-73
2020/12/19 11:49:36;;;;;;;17.15;12.50;;;4.80;82.70;;;;;;4960603;28;20035;-73
2020/12/19 11:52:02;;;;;;;19.45;12.88;;;4.90;82.60;;;;;;4964219;28;20014;-73
2020/12/19 11:54:28;;;;;;;19.77;12.57;;;4.80;82.50;;;;;;4963518;28;20071;-73
2020/12/19 11:56:54;;;;;;;19.23;13.18;;;4.90;82.60;;;;;;4970808;28;20058;-73
2020/12/19 11:59:20;;;;;;;17.27;11.77;;;4.90;81.90;;;;;;4959727;28;20028;-73
2020/12/19 12:01:45;;;;;;;19.08;12.52;;;4.90;82.00;;;;;;4963292;28;20485;-73
2020/12/19 12:04:11;;;;;;;18.33;12.43;;;4.90;81.70;;;;;;4966049;28;20452;-73
2020/12/19 12:06:37;;;;;;;17.80;11.65;;;4.90;82.10;;;;;;4963818;28;20505;-73
2020/12/19 12:09:04;;;;;;;16.90;11.82;;;4.90;82.30;;;;;;4971034;28;20027;-73
2020/12/19 12:11:32;;;;;;;15.77;10.77;;;4.90;81.50;;;;;;4943006;28;20026;-74
2020/12/19 12:13:59;;;;;;;17.98;11.50;;;4.90;81.50;;;;;;4968369;28;20031;-74
2020/12/19 12:16:26;;;;;;;15.18;10.30;;;4.90;81.60;;;;;;4964984;28;20027;-81
2020/12/19 12:18:52;;;;;;;18.23;10.57;;;4.90;81.60;;;;;;4953328;28;20125;-75
2020/12/19 12:21:18;;;;;;;14.77;10.77;;;4.90;81.30;;;;;;4957858;28;20059;-74
2020/12/19 12:23:45;;;;;;;16.02;10.85;;;4.90;81.30;;;;;;4968641;28;20055;-75
2020/12/19 12:26:21;;;;;;;15.07;10.23;;;4.90;81.50;;;;;;4964178;28;20033;-75
2020/12/19 12:28:46;;;;;;;14.65;9.82;;;5.00;81.40;;;;;;4961334;28;20501;-78
2020/12/19 12:31:12;;;;;;;15.63;10.00;;;5.00;81.30;;;;;;4952597;28;20039;-73
2020/12/19 12:33:37;;;;;;;15.48;10.38;;;5.00;81.20;;;;;;4965420;28;20049;-74
2020/12/19 12:36:07;;;;;;;13.10;9.52;;;4.90;81.10;;;;;;4953713;29;20106;-73
2020/12/19 12:38:33;;;;;;;16.75;10.57;;;4.90;81.40;;;;;;4957983;28;20035;-74
2020/12/19 12:40:59;;;;;;;15.05;9.85;;;4.90;81.20;;;;;;4970562;28;20382;-75
2020/12/19 12:43:24;;;;;;;14.77;10.13;;;4.90;81.10;;;;;;4958718;28;20031;-77